Timiskaming Regional Airport
CYXR : now visible

Airfield :











YOU CAN JOIN US ON...

 
LOGIN :

Register | Disclaimer

   EN    FR    IT 

 









Legend :    VFR   Marginal VFR   IFR   Intensive IFR   Very Intensive IFR
Visi :
Ceiling :
>= 8 km
>= 3000ft
5 to 8 km
1000 to 3000 ft
1500m to 5 km
500 to 1000 ft
800 to 1500m
200 to 500 ft
< 800m
< 200 ft
Symbols :   Thunderstorms  Fog  Heavy snow  Heavy precipitations  Wind > 20 kt






- Airport Elevation : 798 ft
- IATA code : YXR


CYXR - Timiskaming Regional

CURRENT METAR :
  • 181000Z AUTO 00000KT 9SM OVC120 M22/M24 A3045 RMK ICG SLP341

EXPIRED METARs :
  • 180920Z AUTO VRB02KT 9SM SCT140 SCT160 M22/M25 A3047 RMK ICG SLP349
  • 180900Z AUTO /////KT SCT130 RMK ICG INTMT WND MISG WX MISG VIS MISG PCPN MISG PRES MISG T MISG TD MISG DENSITY ALT MISG
  • 180800Z AUTO 00000KT 9SM SCT140 M23/M26 A3052 RMK ICG INTMT SLP365

Expired Forecast.



MET'MAP, your aeronautical weather chart ! - Copyright ORBIFLY December 2007 - Disclaimer

ORBIFLY MET'MAP TEAM :

Programming & Development : Alexandra Zaïnal
Concept & original design : Baudouin d'Aumeries
Assistance for programming : Marc-Olivier Méhu
Technical & hardware support : Manuel Goepfert

Contact : metmap@orbifly.com




SOURCES & CREDITS :

   NOAA       Earth
Advisory